Time;durP1;ratioP1;P1;durP2;ratioP2;P2;SDS_P1;SDS_P2;PMS_P1;PMS_P2;Temp;Humidity;BMP_temperature;BMP_pressure;BME280_temperature;BME280_humidity;BME280_pressure;Samples;Min_cycle;Max_cycle;Signal;HPM_P1;HPM_P2
2022/05/03 00:00:10;;;;;;;11.50;6.92;;;;;;;8.33;100.00;101103.42;1801697;80;21061;-64
2022/05/03 00:03:05;;;;;;;8.90;5.72;;;;;;;8.44;100.00;101098.03;1801933;78;20969;-65
2022/05/03 00:05:50;;;;;;;10.93;6.20;;;;;;;8.39;100.00;101106.25;1794465;80;21494;-65
2022/05/03 00:08:38;;;;;;;13.28;7.75;;;;;;;8.33;100.00;101103.83;1790844;78;20975;-65
2022/05/03 00:11:42;;;;;;;12.10;7.70;;;;;;;8.15;100.00;101103.84;1793258;80;20991;-65
2022/05/03 00:14:30;;;;;;;11.33;7.25;;;;;;;8.14;100.00;101097.88;1793633;80;20994;-64
2022/05/03 00:16:59;;;;;;;10.03;6.72;;;;;;;8.03;100.00;101095.59;1793061;79;21033;-65
2022/05/03 00:19:27;;;;;;;11.57;6.85;;;;;;;8.05;100.00;101093.41;1793449;80;21036;-64
2022/05/03 00:21:55;;;;;;;13.10;7.33;;;;;;;7.89;100.00;101089.12;1793238;80;21002;-65
2022/05/03 00:24:25;;;;;;;10.25;7.55;;;;;;;7.91;100.00;101089.92;1793320;80;20958;-65
2022/05/03 00:26:53;;;;;;;14.00;8.30;;;;;;;7.88;100.00;101094.66;1793347;80;21014;-64
2022/05/03 00:29:21;;;;;;;11.60;7.83;;;;;;;7.90;100.00;101089.50;1793139;80;21506;-65
2022/05/03 00:31:50;;;;;;;12.80;7.22;;;;;;;8.02;100.00;101089.20;1793389;80;21541;-64
2022/05/03 00:34:17;;;;;;;12.55;7.12;;;;;;;8.00;100.00;101089.23;1793185;80;20995;-65
2022/05/03 00:36:44;;;;;;;10.88;7.22;;;;;;;7.99;100.00;101085.01;1793398;80;21050;-65
2022/05/03 00:39:12;;;;;;;12.43;7.22;;;;;;;7.97;100.00;101079.52;1792457;80;21529;-65
2022/05/03 00:41:57;;;;;;;9.50;6.67;;;;;;;7.88;100.00;101078.44;1793110;80;21105;-65
2022/05/03 00:44:58;;;;;;;10.20;6.87;;;;;;;7.80;100.00;101078.62;1781303;80;21002;-65
2022/05/03 00:47:45;;;;;;;9.90;6.90;;;;;;;7.72;100.00;101079.23;1793194;80;21007;-64
2022/05/03 00:50:41;;;;;;;10.65;6.92;;;;;;;7.67;100.00;101075.95;1793017;80;21002;-65
2022/05/03 00:53:26;;;;;;;9.40;6.95;;;;;;;7.60;100.00;101076.51;1793351;80;21026;-65
2022/05/03 00:56:32;;;;;;;9.65;7.60;;;;;;;7.70;100.00;101072.86;1793043;80;21029;-64
2022/05/03 00:59:31;;;;;;;8.75;7.28;;;;;;;7.65;100.00;101075.98;1734605;83;21073;-64
2022/05/03 01:02:07;;;;;;;11.55;6.40;;;;;;;7.62;100.00;101083.31;1793221;80;21034;-64
2022/05/03 01:05:01;;;;;;;8.90;6.83;;;;;;;7.55;100.00;101087.31;1741771;81;21002;-64
2022/05/03 01:08:07;;;;;;;10.20;6.80;;;;;;;7.51;100.00;101083.14;1793297;79;21138;-63
2022/05/03 01:10:48;;;;;;;10.82;6.95;;;;;;;7.57;100.00;101080.44;1765476;81;21001;-63
2022/05/03 01:13:26;;;;;;;12.13;7.25;;;;;;;7.65;100.00;101077.71;1793043;80;21030;-63
2022/05/03 01:15:59;;;;;;;14.38;7.55;;;;;;;7.67;100.00;101079.80;1793254;80;20998;-64
2022/05/03 01:18:32;;;;;;;8.65;6.97;;;;;;;7.62;100.00;101078.19;1792117;80;21053;-64
2022/05/03 01:21:15;;;;;;;12.47;7.40;;;;;;;7.56;100.00;101074.89;1793193;80;20994;-64
2022/05/03 01:23:51;;;;;;;9.43;7.20;;;;;;;7.51;100.00;101074.17;1788274;80;21495;-64
2022/05/03 01:26:35;;;;;;;8.68;6.55;;;;;;;7.48;100.00;101075.09;1793369;80;21002;-64
2022/05/03 01:29:17;;;;;;;9.45;6.70;;;;;;;7.46;100.00;101073.41;1757232;80;21497;-64
2022/05/03 01:31:44;;;;;;;8.10;6.22;;;;;;;7.41;100.00;101069.69;1793255;80;21069;-64
2022/05/03 01:34:13;;;;;;;9.48;6.62;;;;;;;7.49;100.00;101065.23;1762170;80;21061;-64
2022/05/03 01:36:58;;;;;;;8.00;6.08;;;;;;;7.54;100.00;101067.27;1793185;80;21026;-64
2022/05/03 01:39:51;;;;;;;8.40;6.08;;;;;;;7.50;100.00;101069.49;1793326;80;21057;-64
2022/05/03 01:42:41;;;;;;;8.25;6.40;;;;;;;7.45;100.00;101070.02;1793285;80;21479;-64
2022/05/03 01:45:11;;;;;;;11.70;6.90;;;;;;;7.39;100.00;101070.16;1792941;80;21022;-64
2022/05/03 01:48:26;;;;;;;10.45;6.70;;;;;;;7.31;100.00;101070.31;1793255;78;21065;-64
2022/05/03 01:51:06;;;;;;;8.95;6.50;;;;;;;7.36;100.00;101071.08;1788429;80;21061;-65
2022/05/03 01:53:43;;;;;;;9.25;6.58;;;;;;;7.32;100.00;101063.47;1790896;80;21026;-63
2022/05/03 01:56:58;;;;;;;10.63;6.70;;;;;;;7.31;100.00;101065.64;1793036;80;20994;-64
2022/05/03 01:59:33;;;;;;;8.80;6.45;;;;;;;7.25;100.00;101068.33;1793364;80;21022;-64
2022/05/03 02:02:33;;;;;;;8.95;6.92;;;;;;;7.33;100.00;101066.45;1792772;80;21038;-64
2022/05/03 02:05:07;;;;;;;9.80;7.10;;;;;;;7.21;100.00;101065.82;1793012;79;21018;-64
2022/05/03 02:07:55;;;;;;;8.73;6.58;;;;;;;7.20;100.00;101070.55;1790482;80;21057;-64
2022/05/03 02:10:33;;;;;;;13.53;6.60;;;;;;;7.02;100.00;101069.21;1793237;80;21006;-65
2022/05/03 02:13:08;;;;;;;10.15;7.30;;;;;;;6.93;100.00;101066.82;1790984;80;21514;-64
2022/05/03 02:15:39;;;;;;;8.80;6.45;;;;;;;6.89;100.00;101070.31;1791794;80;21034;-63
2022/05/03 02:18:12;;;;;;;11.10;6.67;;;;;;;6.92;100.00;101070.27;1793005;80;21042;-64
2022/05/03 02:21:09;;;;;;;10.58;6.35;;;;;;;6.94;100.00;101072.36;1792247;80;20995;-64
2022/05/03 02:24:02;;;;;;;10.40;6.60;;;;;;;6.94;100.00;101071.53;1792901;80;21050;-64
2022/05/03 02:26:43;;;;;;;11.20;6.75;;;;;;;6.88;100.00;101075.05;1793197;80;21494;-64
2022/05/03 02:29:18;;;;;;;8.33;6.20;;;;;;;6.87;100.00;101074.63;1792917;80;21506;-64
2022/05/03 02:31:49;;;;;;;13.35;6.70;;;;;;;6.91;100.00;101072.85;1793350;80;21470;-64
2022/05/03 02:34:25;;;;;;;10.30;6.40;;;;;;;6.93;100.00;101078.34;1793054;80;21073;-64
2022/05/03 02:36:57;;;;;;;10.50;6.42;;;;;;;6.93;100.00;101078.34;1793271;80;21549;-64
2022/05/03 02:39:29;;;;;;;11.30;6.40;;;;;;;6.91;100.00;101079.25;1792760;78;21062;-64
2022/05/03 02:42:01;;;;;;;14.45;7.08;;;;;;;7.04;100.00;101076.87;1793030;79;21050;-63
2022/05/03 02:44:30;;;;;;;10.30;6.33;;;;;;;7.04;100.00;101079.88;1793149;78;21002;-64
2022/05/03 02:47:06;;;;;;;12.20;6.70;;;;;;;7.13;100.00;101077.94;1793059;80;21013;-64
2022/05/03 02:49:59;;;;;;;12.33;6.20;;;;;;;7.27;100.00;101081.95;1793026;80;21026;-64
2022/05/03 02:52:54;;;;;;;8.75;5.85;;;;;;;7.23;100.00;101078.59;1793230;80;21017;-64
2022/05/03 02:55:54;;;;;;;7.95;5.87;;;;;;;7.31;100.00;101083.56;1793117;80;21022;-63
2022/05/03 02:58:50;;;;;;;8.75;6.30;;;;;;;7.30;100.00;101095.53;1793127;80;21010;-64
2022/05/03 03:01:49;;;;;;;9.20;6.72;;;;;;;7.30;100.00;101090.41;1792552;80;21077;-64
2022/05/03 03:04:45;;;;;;;10.72;7.42;;;;;;;7.35;100.00;101087.30;1761258;80;21053;-64
2022/05/03 03:07:19;;;;;;;10.80;7.15;;;;;;;7.27;100.00;101091.74;1792749;80;21570;-65
2022/05/03 03:09:57;;;;;;;9.68;6.75;;;;;;;7.34;100.00;101093.31;1793177;80;20962;-64
2022/05/03 03:12:45;;;;;;;9.45;6.50;;;;;;;7.48;100.00;101090.87;1792897;78;21499;-64
2022/05/03 03:15:16;;;;;;;9.83;6.17;;;;;;;7.49;100.00;101093.41;1792895;80;21104;-63
2022/05/03 03:17:50;;;;;;;9.60;6.62;;;;;;;7.55;100.00;101097.12;1793098;80;21069;-64
2022/05/03 03:20:27;;;;;;;9.60;6.70;;;;;;;7.55;100.00;101095.84;1793348;80;21030;-64
2022/05/03 03:22:55;;;;;;;13.53;7.08;;;;;;;7.55;100.00;101097.12;1792751;80;21496;-64
2022/05/03 03:25:23;;;;;;;12.60;7.50;;;;;;;7.38;100.00;101093.66;1765388;81;21084;-64
2022/05/03 03:27:57;;;;;;;12.93;7.78;;;;;;;7.40;100.00;101095.74;1793152;80;21021;-63
2022/05/03 03:30:24;;;;;;;11.40;7.58;;;;;;;7.34;100.00;101093.73;1793223;80;21037;-64
2022/05/03 03:32:56;;;;;;;12.07;7.85;;;;;;;7.43;100.00;101093.09;1792836;80;21034;-63
2022/05/03 03:35:24;;;;;;;12.60;8.77;;;;;;;7.58;100.00;101091.94;1793214;80;21041;-64
2022/05/03 03:37:52;;;;;;;12.53;8.33;;;;;;;7.63;100.00;101103.36;1792755;80;21050;-63
2022/05/03 03:40:21;;;;;;;15.93;8.65;;;;;;;7.69;100.00;101103.67;1793234;80;21475;-63
2022/05/03 03:42:49;;;;;;;13.95;8.60;;;;;;;7.87;100.00;101110.94;1792913;80;21482;-63
2022/05/03 03:45:17;;;;;;;11.35;8.30;;;;;;;7.95;100.00;101106.91;1792942;80;21026;-63
2022/05/03 03:47:46;;;;;;;9.95;7.87;;;;;;;8.05;100.00;101112.23;1793192;78;21026;-63
2022/05/03 03:50:15;;;;;;;15.32;8.10;;;;;;;8.15;100.00;101113.69;1792990;80;20999;-63
2022/05/03 03:52:46;;;;;;;13.70;8.63;;;;;;;8.27;100.00;101109.95;1793084;80;21026;-64
2022/05/03 03:55:14;;;;;;;15.13;8.58;;;;;;;8.37;100.00;101111.86;1793233;80;21069;-63
2022/05/03 03:57:43;;;;;;;13.55;8.28;;;;;;;8.41;100.00;101113.49;1793161;80;20966;-63
2022/05/03 04:00:14;;;;;;;12.35;7.83;;;;;;;8.60;100.00;101119.02;1793119;80;20967;-63
2022/05/03 04:02:44;;;;;;;11.97;8.15;;;;;;;8.73;100.00;101115.67;1792915;80;21141;-66
2022/05/03 04:05:16;;;;;;;12.23;8.25;;;;;;;8.85;100.00;101110.20;1763838;79;21042;-64
2022/05/03 04:07:43;;;;;;;14.18;7.97;;;;;;;8.92;100.00;101113.02;1801417;80;21025;-64
2022/05/03 04:10:10;;;;;;;11.93;7.75;;;;;;;8.98;100.00;101113.27;1801496;80;21077;-65
2022/05/03 04:12:38;;;;;;;11.57;7.92;;;;;;;9.09;100.00;101123.27;1801797;80;21030;-64
2022/05/03 04:15:07;;;;;;;15.30;8.45;;;;;;;9.31;100.00;101122.22;1801543;80;21018;-64
2022/05/03 04:17:34;;;;;;;10.72;7.78;;;;;;;9.45;100.00;101116.64;1801762;80;21045;-64
2022/05/03 04:20:03;;;;;;;13.35;8.40;;;;;;;9.63;100.00;101119.98;1801814;80;21096;-64
2022/05/03 04:22:33;;;;;;;10.40;8.18;;;;;;;9.72;100.00;101121.42;1801695;80;21556;-64
2022/05/03 04:25:04;;;;;;;12.70;8.10;;;;;;;9.95;100.00;101116.38;1801992;80;21025;-64
2022/05/03 04:27:34;;;;;;;14.53;8.05;;;;;;;10.09;100.00;101113.83;1801826;78;21513;-64
2022/05/03 04:30:03;;;;;;;13.43;8.40;;;;;;;10.31;100.00;101121.27;1801936;80;21446;-64
2022/05/03 04:32:33;;;;;;;10.53;8.23;;;;;;;10.27;100.00;101117.08;1801636;80;21041;-65
2022/05/03 04:35:02;;;;;;;11.53;8.43;;;;;;;10.46;100.00;101122.48;1801494;80;21517;-64
2022/05/03 04:37:29;;;;;;;15.40;9.50;;;;;;;10.61;100.00;101118.56;1801773;80;21029;-64
2022/05/03 04:39:57;;;;;;;16.20;9.35;;;;;;;10.75;100.00;101121.50;1801543;80;21030;-64
2022/05/03 04:42:26;;;;;;;16.12;8.93;;;;;;;10.89;100.00;101119.73;1801709;80;21506;-64
2022/05/03 04:44:55;;;;;;;14.07;7.87;;;;;;;10.96;100.00;101115.19;1801516;80;21026;-64
2022/05/03 04:47:22;;;;;;;8.68;7.10;;;;;;;11.20;100.00;101112.17;1801809;80;21006;-65
2022/05/03 04:49:49;;;;;;;10.80;6.95;;;;;;;11.26;100.00;101109.82;1801574;80;21466;-65
2022/05/03 04:52:16;;;;;;;8.43;6.78;;;;;;;11.38;100.00;101110.19;1801683;80;21057;-65
2022/05/03 04:54:43;;;;;;;8.35;6.20;;;;;;;11.54;100.00;101108.33;1801884;80;21534;-65
2022/05/03 04:57:11;;;;;;;10.30;6.00;;;;;;;11.67;100.00;101112.09;1801833;80;21049;-65
2022/05/03 04:59:40;;;;;;;10.48;6.45;;;;;;;11.81;100.00;101116.72;1802108;80;21545;-65
2022/05/03 05:02:07;;;;;;;10.18;6.30;;;;;;;11.99;100.00;101117.77;1801801;78;21041;-64
2022/05/03 05:04:35;;;;;;;8.33;5.53;;;;;;;12.29;100.00;101117.42;1801789;80;21030;-65
2022/05/03 05:07:02;;;;;;;9.20;6.20;;;;;;;12.33;100.00;101113.81;1801758;80;21046;-64
2022/05/03 05:09:29;;;;;;;6.85;5.42;;;;;;;12.54;100.00;101113.34;1801847;80;21104;-64
2022/05/03 05:11:58;;;;;;;9.08;6.08;;;;;;;12.66;100.00;101112.82;1801830;80;21053;-64
2022/05/03 05:14:25;;;;;;;8.20;5.50;;;;;;;12.86;100.00;101116.30;1801985;80;21085;-64
2022/05/03 05:16:53;;;;;;;12.65;5.53;;;;;;;12.99;100.00;101113.08;1801841;80;21034;-65
2022/05/03 05:19:20;;;;;;;7.35;5.70;;;;;;;13.11;100.00;101117.33;1801977;80;20982;-65
2022/05/03 05:21:48;;;;;;;7.65;6.08;;;;;;;13.36;100.00;101115.77;1801805;80;21033;-64
2022/05/03 05:24:15;;;;;;;11.22;5.97;;;;;;;13.42;100.00;101119.38;1802495;80;21053;-64
2022/05/03 05:26:42;;;;;;;9.03;6.17;;;;;;;13.48;100.00;101121.67;1801649;80;21544;-65
2022/05/03 05:29:09;;;;;;;7.75;5.95;;;;;;;13.61;100.00;101119.38;1801808;80;21549;-65
2022/05/03 05:31:37;;;;;;;9.45;6.42;;;;;;;13.79;100.00;101118.50;1802023;80;21033;-65
2022/05/03 05:34:04;;;;;;;10.88;5.90;;;;;;;13.75;100.00;101110.50;1801772;80;21557;-65
2022/05/03 05:36:32;;;;;;;8.20;5.70;;;;;;;13.82;100.00;101104.11;1801904;80;21057;-65
2022/05/03 05:38:59;;;;;;;12.33;6.42;;;;;;;13.89;100.00;101108.98;1801752;78;21018;-65
2022/05/03 05:41:28;;;;;;;11.95;6.28;;;;;;;13.93;100.00;101099.73;1801750;78;21525;-65
2022/05/03 05:43:55;;;;;;;11.25;5.90;;;;;;;14.05;100.00;101103.47;1802023;80;21096;-65
2022/05/03 05:46:22;;;;;;;7.70;5.00;;;;;;;14.26;96.38;101107.20;1801726;80;21033;-65
2022/05/03 05:48:49;;;;;;;9.50;5.15;;;;;;;14.34;93.53;101101.18;1801949;80;21466;-65
2022/05/03 05:51:16;;;;;;;7.72;5.03;;;;;;;14.49;93.50;101105.56;1801734;80;21017;-65
2022/05/03 05:53:44;;;;;;;8.13;4.85;;;;;;;14.65;89.73;101101.77;1801762;80;21494;-65
2022/05/03 05:56:11;;;;;;;9.65;5.20;;;;;;;14.75;91.18;101095.66;1802005;80;21069;-65
2022/05/03 05:58:38;;;;;;;12.37;4.90;;;;;;;14.83;90.38;101099.98;1801742;80;21498;-65
2022/05/03 06:01:06;;;;;;;8.73;4.33;;;;;;;14.95;89.74;101095.91;1801847;80;21073;-65
2022/05/03 06:03:34;;;;;;;9.35;4.47;;;;;;;14.98;85.78;101090.55;1801693;80;21053;-66
2022/05/03 06:06:02;;;;;;;7.28;4.37;;;;;;;15.13;84.18;101088.91;1801904;80;21049;-65
2022/05/03 06:08:29;;;;;;;5.37;4.10;;;;;;;15.15;80.80;101090.48;1801695;80;21088;-65
2022/05/03 06:10:59;;;;;;;10.53;4.12;;;;;;;15.40;79.00;101094.34;1801974;80;21458;-65
2022/05/03 06:13:26;;;;;;;8.98;3.98;;;;;;;15.43;78.51;101089.83;1801979;80;21097;-66
2022/05/03 06:15:54;;;;;;;8.03;3.90;;;;;;;15.59;77.00;101091.11;1801066;80;21045;-65
2022/05/03 06:18:22;;;;;;;4.70;3.42;;;;;;;15.67;76.47;101083.34;1801003;80;21030;-63
2022/05/03 06:20:50;;;;;;;8.70;4.35;;;;;;;15.80;77.90;101085.66;1800845;80;21031;-65
2022/05/03 06:23:17;;;;;;;7.95;3.80;;;;;;;15.86;74.07;101090.98;1800773;79;21569;-65
2022/05/03 06:25:45;;;;;;;5.50;3.35;;;;;;;16.00;74.18;101087.13;1800938;80;21034;-65
2022/05/03 06:28:12;;;;;;;7.35;3.55;;;;;;;16.22;74.54;101086.25;1800770;80;21085;-65
2022/05/03 06:30:41;;;;;;;8.98;3.62;;;;;;;16.33;72.61;101088.20;1800864;80;21053;-65
2022/05/03 06:33:08;;;;;;;6.95;3.60;;;;;;;16.39;71.95;101090.91;1800740;80;21062;-65
2022/05/03 06:35:36;;;;;;;6.20;3.12;;;;;;;16.52;70.45;101087.94;1800975;80;21045;-65
2022/05/03 06:38:03;;;;;;;5.70;3.47;;;;;;;16.57;70.61;101088.52;1800632;80;21080;-65
2022/05/03 06:40:31;;;;;;;4.47;2.90;;;;;;;16.75;69.05;101083.97;1800712;80;21029;-65
2022/05/03 06:42:58;;;;;;;4.65;2.90;;;;;;;16.77;66.88;101088.61;1800675;80;21088;-65
2022/05/03 06:45:26;;;;;;;7.30;3.62;;;;;;;16.83;65.41;101084.84;1800660;80;21042;-65
2022/05/03 06:47:53;;;;;;;6.35;3.50;;;;;;;16.89;64.88;101083.17;1800940;80;21038;-65
2022/05/03 06:50:21;;;;;;;5.58;3.52;;;;;;;16.98;64.87;101076.08;1800642;80;21112;-65
2022/05/03 06:52:48;;;;;;;5.50;3.08;;;;;;;17.06;64.07;101076.91;1800877;80;21049;-63
2022/05/03 06:55:16;;;;;;;4.17;2.92;;;;;;;17.19;65.95;101069.17;1800542;80;21088;-64
2022/05/03 06:57:43;;;;;;;5.00;3.10;;;;;;;17.33;64.16;101069.59;1801048;80;21561;-64
2022/05/03 07:00:11;;;;;;;7.37;3.08;;;;;;;17.35;62.74;101068.56;1800659;80;21081;-64
2022/05/03 07:02:39;;;;;;;5.70;2.95;;;;;;;17.41;63.80;101067.34;1800746;80;21092;-64
2022/05/03 07:05:08;;;;;;;4.50;3.02;;;;;;;17.32;60.65;101070.08;1800516;78;21180;-64
2022/05/03 07:07:35;;;;;;;6.47;3.05;;;;;;;17.55;61.21;101061.26;1793526;78;21037;-64
2022/05/03 07:10:04;;;;;;;5.10;2.80;;;;;;;17.61;62.25;101060.86;1793035;80;21022;-64
2022/05/03 07:12:32;;;;;;;5.17;2.70;;;;;;;17.73;62.10;101057.45;1793260;78;21133;-64
2022/05/03 07:15:04;;;;;;;4.60;3.30;;;;;;;17.73;60.58;101054.85;1778649;80;21005;-64
2022/05/03 07:23:04;;;;;;;6.42;3.40;;;;;;;18.31;59.84;101065.81;1752456;82;21038;-64
2022/05/03 07:25:32;;;;;;;5.10;3.15;;;;;;;18.30;60.33;101061.52;1752607;80;21031;-64
2022/05/03 07:28:03;;;;;;;5.42;3.45;;;;;;;18.29;60.41;101062.47;1752523;82;20991;-64
2022/05/03 07:30:31;;;;;;;7.78;3.30;;;;;;;18.45;58.98;101058.36;1752410;80;21034;-64
2022/05/03 07:32:58;;;;;;;5.80;3.30;;;;;;;18.52;58.05;101054.86;1752550;82;21042;-65
2022/05/03 07:35:25;;;;;;;8.43;3.70;;;;;;;18.33;57.76;101051.34;1752569;81;21027;-65
2022/05/03 07:37:53;;;;;;;5.12;3.02;;;;;;;18.36;57.98;101048.55;1752231;80;21042;-65
2022/05/03 07:40:20;;;;;;;6.35;2.90;;;;;;;18.26;58.04;101045.73;1752354;82;20994;-65
2022/05/03 07:42:48;;;;;;;7.72;3.50;;;;;;;18.32;58.72;101040.09;1771131;80;20987;-64
2022/05/03 07:45:19;;;;;;;5.40;3.25;;;;;;;18.58;58.35;101042.22;1752057;81;21042;-65
2022/05/03 07:47:49;;;;;;;7.83;3.35;;;;;;;18.74;58.51;101046.38;1751900;82;21591;-66
2022/05/03 07:50:16;;;;;;;6.50;3.37;;;;;;;18.80;57.72;101040.77;1752269;80;20974;-65
2022/05/03 07:52:46;;;;;;;5.72;3.33;;;;;;;18.89;58.18;101038.80;1751922;80;21117;-65
2022/05/03 07:55:14;;;;;;;4.47;3.15;;;;;;;18.90;58.95;101037.05;1752472;82;21061;-64
2022/05/03 07:57:41;;;;;;;6.12;3.47;;;;;;;19.00;57.70;101032.84;1752335;80;21078;-65
2022/05/03 08:00:12;;;;;;;5.47;3.70;;;;;;;19.10;59.70;101027.32;1787136;80;21057;-64
2022/05/03 08:02:40;;;;;;;6.40;3.50;;;;;;;19.21;57.94;101025.23;1787139;80;21545;-64
2022/05/03 08:05:10;;;;;;;5.53;3.67;;;;;;;19.32;60.03;101018.78;1786742;79;21007;-64
2022/05/03 08:07:39;;;;;;;6.28;4.00;;;;;;;19.11;57.54;101017.70;1779701;79;21124;-64
2022/05/03 08:10:07;;;;;;;5.25;3.55;;;;;;;18.81;56.69;101015.86;1776913;81;21041;-64
2022/05/03 08:12:35;;;;;;;5.22;3.42;;;;;;;18.71;58.35;101011.38;1777306;81;21017;-64
2022/05/03 08:15:04;;;;;;;6.37;4.00;;;;;;;18.58;59.08;101008.33;1776944;81;21128;-64
2022/05/03 08:17:32;;;;;;;7.35;3.62;;;;;;;18.60;57.28;101003.83;1777265;80;21538;-64
2022/05/03 08:20:00;;;;;;;6.10;3.87;;;;;;;18.66;56.80;101003.05;1776908;79;21045;-64
2022/05/03 08:22:27;;;;;;;7.12;4.03;;;;;;;18.82;56.99;101002.36;1777080;81;21081;-64
2022/05/03 08:24:54;;;;;;;5.55;3.60;;;;;;;18.92;56.05;101003.85;1777305;80;21053;-64
2022/05/03 08:27:22;;;;;;;7.25;3.65;;;;;;;19.17;55.25;101001.12;1777040;79;21101;-65
2022/05/03 08:29:50;;;;;;;4.80;3.30;;;;;;;19.56;54.85;100995.22;1777496;80;21491;-64
2022/05/03 08:32:17;;;;;;;6.75;3.35;;;;;;;19.88;55.82;100986.80;1777473;80;21498;-64
2022/05/03 08:34:44;;;;;;;7.45;3.72;;;;;;;20.17;54.25;100992.43;1777517;79;21041;-64
2022/05/03 08:42:45;;;;;;;6.05;3.75;;;;;;;19.98;53.51;100987.76;1777270;79;21077;-63
2022/05/03 08:45:13;;;;;;;7.15;3.80;;;;;;;20.05;54.09;100989.42;1777218;81;21537;-64
2022/05/03 08:47:41;;;;;;;7.83;3.90;;;;;;;19.80;54.22;100988.67;1777286;78;21065;-63
2022/05/03 08:50:12;;;;;;;8.33;3.67;;;;;;;20.00;54.25;100984.55;1737689;81;21514;-64
2022/05/03 08:52:47;;;;;;;7.62;3.90;;;;;;;20.15;53.99;100988.25;1714210;83;21516;-64
2022/05/03 08:55:15;;;;;;;6.40;3.83;;;;;;;20.10;52.27;100986.48;1744961;81;21002;-64
2022/05/03 08:57:45;;;;;;;5.67;3.98;;;;;;;20.22;52.53;100984.23;1745165;82;21030;-64
2022/05/03 09:00:14;;;;;;;6.40;4.05;;;;;;;20.25;52.44;100985.77;1745008;82;21042;-64
2022/05/03 09:02:51;;;;;;;6.28;3.83;;;;;;;20.49;50.76;100981.23;1745047;82;21073;-65
2022/05/03 09:05:20;;;;;;;5.05;3.58;;;;;;;20.79;50.77;100977.19;1745056;82;21041;-64
2022/05/03 09:07:54;;;;;;;6.50;3.67;;;;;;;20.80;50.25;100976.22;1750259;79;21101;-64
2022/05/03 09:10:33;;;;;;;6.03;3.60;;;;;;;21.18;49.40;100972.30;1754760;82;21030;-64
2022/05/03 09:13:22;;;;;;;5.92;4.00;;;;;;;21.48;49.57;100970.78;1754566;82;21034;-64
2022/05/03 09:15:58;;;;;;;4.58;3.40;;;;;;;21.57;48.09;100966.07;1754574;82;21549;-64
2022/05/03 09:18:28;;;;;;;5.37;3.60;;;;;;;22.12;46.44;100964.50;1754287;82;21121;-64
2022/05/03 09:23:48;;;;;;;5.47;3.72;;;;;;;21.76;45.54;100957.03;1754887;82;21023;-64
2022/05/03 09:26:26;;;;;;;5.30;3.67;;;;;;;21.59;44.68;100954.98;1723895;82;21037;-64
2022/05/03 09:29:07;;;;;;;7.42;3.70;;;;;;;21.41;46.08;100956.85;1754637;80;21228;-64
2022/05/03 09:31:47;;;;;;;5.10;3.62;;;;;;;21.11;45.42;100956.76;1754629;80;21059;-64
2022/05/03 09:34:28;;;;;;;7.28;3.70;;;;;;;21.10;45.52;100948.05;1754743;82;21084;-64
2022/05/03 09:37:04;;;;;;;6.87;3.02;;;;;;;21.04;45.57;100943.80;1754126;82;21329;-64
2022/05/03 09:39:38;;;;;;;6.22;3.58;;;;;;;21.14;45.38;100944.72;1754573;80;21475;-64
2022/05/03 09:42:16;;;;;;;8.83;3.47;;;;;;;21.26;43.84;100949.42;1754315;82;21030;-64
2022/05/03 09:45:00;;;;;;;8.90;3.70;;;;;;;21.28;44.71;100943.09;1754808;81;20970;-64
2022/05/03 09:47:31;;;;;;;4.37;3.37;;;;;;;21.23;44.92;100937.88;1754849;80;21058;-64
2022/05/03 09:49:58;;;;;;;6.33;3.60;;;;;;;20.98;46.58;100938.58;1754772;80;20966;-64
2022/05/03 09:52:29;;;;;;;6.22;3.40;;;;;;;20.94;45.42;100937.99;1754597;82;21073;-65
2022/05/03 09:55:00;;;;;;;4.35;3.40;;;;;;;21.09;46.71;100931.19;1754954;82;21013;-66
2022/05/03 09:57:30;;;;;;;4.80;3.47;;;;;;;20.98;48.23;100926.31;1754741;82;21081;-65
2022/05/03 09:59:58;;;;;;;6.15;3.92;;;;;;;20.86;48.56;100927.31;1754724;81;20994;-66
2022/05/03 10:02:28;;;;;;;4.30;3.50;;;;;;;20.56;49.73;100918.80;1754823;82;21506;-66
2022/05/03 10:04:57;;;;;;;5.50;3.95;;;;;;;20.33;51.85;100913.61;1754429;82;21565;-65
2022/05/03 10:07:26;;;;;;;6.08;4.00;;;;;;;20.41;51.04;100913.84;1754600;80;21054;-65
2022/05/03 10:09:54;;;;;;;5.45;3.50;;;;;;;20.35;51.09;100916.94;1754686;80;21546;-66
2022/05/03 10:12:21;;;;;;;5.42;3.27;;;;;;;20.52;51.19;100914.77;1754787;80;21440;-65
2022/05/03 10:14:51;;;;;;;4.83;3.20;;;;;;;20.61;51.66;100904.44;1754529;82;21030;-65
2022/05/03 10:20:40;;;;;;;4.08;3.20;;;;;;;20.65;50.80;100912.88;1754577;82;21019;-64
2022/05/03 10:23:24;;;;;;;6.03;3.37;;;;;;;20.61;51.16;100913.59;1752663;81;21089;-64
2022/05/03 10:26:05;;;;;;;6.45;3.60;;;;;;;20.66;50.45;100913.70;1747067;82;21045;-64
2022/05/03 10:29:07;;;;;;;5.62;3.60;;;;;;;20.47;49.85;100906.48;1753701;80;22891;-64
2022/05/03 10:32:03;;;;;;;6.72;3.40;;;;;;;20.62;51.29;100906.60;1753929;82;21085;-64
2022/05/03 10:34:59;;;;;;;5.10;3.30;;;;;;;20.64;50.68;100896.84;1702937;82;21084;-64
2022/05/03 10:37:33;;;;;;;8.13;3.60;;;;;;;20.73;50.45;100888.23;1753781;81;21085;-64
2022/05/03 10:40:10;;;;;;;4.53;3.37;;;;;;;20.85;51.22;100887.73;1754716;80;21021;-64
2022/05/03 10:42:39;;;;;;;6.00;3.47;;;;;;;21.16;51.04;100887.34;1754565;80;20992;-64
2022/05/03 10:45:12;;;;;;;7.72;3.62;;;;;;;21.48;50.66;100883.03;1754810;82;21502;-64
2022/05/03 10:47:52;;;;;;;4.95;3.35;;;;;;;21.27;49.84;100879.92;1754992;80;21014;-64
2022/05/03 10:50:26;;;;;;;5.22;3.37;;;;;;;21.18;48.60;100880.67;1754796;82;21014;-64
2022/05/03 10:52:59;;;;;;;;;;;;;;;21.17;46.33;100881.64;1757059;81;21019;-63
2022/05/03 10:55:29;;;;;;;5.90;3.22;;;;;;;21.33;45.52;100875.48;1754831;82;20130;-64
2022/05/03 10:58:25;;;;;;;6.05;3.62;;;;;;;21.48;47.39;100869.45;1754543;82;21124;-64
2022/05/03 11:01:14;;;;;;;4.97;3.50;;;;;;;21.77;47.09;100863.03;1754572;80;21534;-63
2022/05/03 11:03:57;;;;;;;4.80;3.20;;;;;;;21.74;47.22;100865.11;1754419;80;21577;-62
2022/05/03 11:06:32;;;;;;;5.97;3.20;;;;;;;21.79;46.20;100865.03;1753904;82;21081;-62
2022/05/03 11:14:26;;;;;;;5.28;3.22;;;;;;;22.17;44.63;100857.45;1768217;81;21000;-63
2022/05/03 11:17:08;;;;;;;3.98;2.92;;;;;;;22.35;45.19;100849.30;1768507;80;21513;-63
2022/05/03 11:19:51;;;;;;;5.05;3.30;;;;;;;22.15;41.16;100851.51;1768628;80;21522;-63
2022/05/03 11:22:28;;;;;;;6.10;3.30;;;;;;;22.55;44.74;100850.16;1768062;81;21510;-63
2022/05/03 11:24:58;;;;;;;4.05;2.98;;;;;;;22.68;43.06;100849.88;1768185;81;21038;-63
2022/05/03 11:27:27;;;;;;;4.30;3.02;;;;;;;22.32;43.17;100840.87;1768372;80;21069;-62
2022/05/03 11:30:08;;;;;;;4.87;3.15;;;;;;;22.22;46.20;100836.87;1768248;81;21041;-63
2022/05/03 11:32:42;;;;;;;4.95;3.35;;;;;;;22.23;46.20;100831.17;1768599;80;21005;-63
2022/05/03 11:35:18;;;;;;;;;;;;;;;22.37;45.87;100832.12;1770896;81;21018;-63
2022/05/03 11:37:59;;;;;;;4.30;3.20;;;;;;;22.37;44.32;100826.39;1768417;80;20152;-63
2022/05/03 11:40:26;;;;;;;4.70;3.00;;;;;;;22.33;45.63;100828.94;1768117;80;21041;-62
2022/05/03 11:42:54;;;;;;;5.03;3.00;;;;;;;22.46;45.30;100820.80;1768493;80;21038;-63
2022/05/03 11:45:21;;;;;;;5.72;3.00;;;;;;;22.78;45.57;100821.01;1768163;81;21026;-63
2022/05/03 11:47:51;;;;;;;5.30;3.15;;;;;;;22.74;45.85;100819.14;1768286;81;21030;-63
2022/05/03 11:56:06;;;;;;;6.45;3.02;;;;;;;23.66;44.14;100809.83;1768499;81;21090;-63
2022/05/03 11:58:35;;;;;;;6.80;3.37;;;;;;;24.12;41.43;100807.23;1768601;81;20998;-63
2022/05/03 12:01:11;;;;;;;4.30;2.83;;;;;;;24.31;40.48;100801.85;1768554;80;20966;-63
2022/05/03 12:03:48;;;;;;;7.53;3.00;;;;;;;24.25;40.70;100797.66;1768151;80;21097;-63
2022/05/03 12:06:16;;;;;;;3.02;2.80;;;;;;;24.28;42.64;100791.62;1768127;80;21053;-63
2022/05/03 12:08:46;;;;;;;4.15;2.80;;;;;;;23.97;41.82;100795.91;1768579;81;21146;-62
2022/05/03 12:11:21;;;;;;;4.60;2.85;;;;;;;23.77;39.22;100794.38;1768558;81;21044;-63
2022/05/03 12:13:48;;;;;;;4.55;3.05;;;;;;;23.90;40.70;100793.52;1768416;80;21077;-63
2022/05/03 12:16:21;;;;;;;4.62;2.80;;;;;;;23.91;42.37;100795.19;1768592;81;21001;-63
2022/05/03 12:18:48;;;;;;;3.35;2.80;;;;;;;24.02;43.07;100788.07;1768493;81;20986;-63